Time;durP1;ratioP1;P1;durP2;ratioP2;P2;SDS_P1;SDS_P2;PMS_P1;PMS_P2;Temp;Humidity;BMP_temperature;BMP_pressure;BME280_temperature;BME280_humidity;BME280_pressure;Samples;Min_cycle;Max_cycle;Signal;HPM_P1;HPM_P2
2022/11/06 00:00:46;;;;;;;;;;;;;;;14.38;63.50;99873.38;4362860;32;19971;-84
2022/11/06 00:03:12;;;;;;;;;;;;;;;14.51;63.28;99874.28;4353190;32;19983;-83
2022/11/06 00:08:36;;;;;;;;;;;;;;;14.22;63.74;99882.91;4358691;32;19983;-82
2022/11/06 00:11:09;;;;;;;;;;;;;;;14.41;63.54;99874.25;4366195;32;19980;-85
2022/11/06 00:13:36;;;;;;;;;;;;;;;14.32;63.82;99884.66;4361584;32;19986;-86
2022/11/06 00:16:04;;;;;;;;;;;;;;;14.39;63.70;99886.41;4355542;32;19987;-81
2022/11/06 00:18:31;;;;;;;;;;;;;;;14.31;64.01;99882.91;4378356;32;20009;-80
2022/11/06 00:20:58;;;;;;;;;;;;;;;14.20;64.48;99884.66;4378392;32;19975;-81
2022/11/06 00:23:25;;;;;;;;;;;;;;;14.01;64.73;99890.66;4361969;32;20021;-83
2022/11/06 00:25:55;;;;;;;;;;;;;;;14.02;64.75;99884.59;4356417;32;19998;-88
2022/11/06 00:28:22;;;;;;;;;;;;;;;14.23;64.05;99889.88;4361105;32;19999;-80
2022/11/06 00:30:49;;;;;;;;;;;;;;;14.42;63.85;99881.22;4380967;32;20010;-81
2022/11/06 00:33:15;;;;;;;;;;;;;;;14.18;64.45;99881.16;4354567;32;20006;-81
2022/11/06 00:35:42;;;;;;;;;;;;;;;14.14;64.60;99884.63;4355092;32;20034;-82
2022/11/06 00:38:09;;;;;;;;;;;;;;;14.26;64.07;99884.63;4363809;32;20000;-87
2022/11/06 00:40:36;;;;;;;;;;;;;;;14.19;64.33;99877.69;4356769;32;19972;-81
2022/11/06 00:43:03;;;;;;;;;;;;;;;14.24;64.07;99881.19;4353284;32;20026;-85
2022/11/06 00:45:30;;;;;;;;;;;;;;;14.42;63.75;99870.81;4358214;32;20006;-83
2022/11/06 00:47:56;;;;;;;;;;;;;;;14.29;64.28;99879.44;4360014;32;20325;-82
2022/11/06 00:50:25;;;;;;;;;;;;;;;14.32;64.06;99882.03;4378894;32;20355;-85
2022/11/06 00:52:52;;;;;;;;;;;;;;;14.43;63.70;99882.09;4355139;32;19987;-85
2022/11/06 00:55:19;;;;;;;;;;;;;;;14.34;63.99;99877.72;4383771;32;20005;-88
2022/11/06 00:57:46;;;;;;;;;;;;;;;14.21;64.46;99882.91;3764989;32;10011486;-83
2022/11/06 01:00:12;;;;;;;;;;;;;;;14.36;63.90;99876.00;4355288;32;20011;-81
2022/11/06 01:02:39;;;;;;;;;;;;;;;14.47;63.61;99869.94;4356485;32;20037;-89
2022/11/06 01:05:07;;;;;;;;;;;;;;;14.41;63.99;99879.47;4361747;32;20006;-84
2022/11/06 01:07:34;;;;;;;;;;;;;;;14.39;63.98;99882.97;4362326;32;20001;-86
2022/11/06 01:10:01;;;;;;;;;;;;;;;14.40;63.50;99885.53;4356769;32;19983;-82
2022/11/06 01:12:29;;;;;;;;;;;;;;;14.51;63.55;99880.38;4363416;32;19994;-81
2022/11/06 01:14:57;;;;;;;;;;;;;;;14.42;63.89;99886.44;4357995;32;19990;-82
2022/11/06 01:17:24;;;;;;;;;;;;;;;14.25;64.42;99893.31;4361755;32;20030;-83
2022/11/06 01:19:51;;;;;;;;;;;;;;;14.27;64.52;99896.81;4355011;32;20001;-87
2022/11/06 01:22:18;;;;;;;;;;;;;;;14.46;63.90;99886.44;4355618;32;20002;-87
2022/11/06 01:24:45;;;;;;;;;;;;;;;14.55;63.56;99894.25;4386282;32;19987;-80
2022/11/06 01:27:12;;;;;;;;;;;;;;;14.32;64.30;99896.81;4359680;32;20821;-82
2022/11/06 01:29:52;;;;;;;;;;;;;;;14.49;63.87;99886.44;4360994;32;20039;-85
2022/11/06 01:32:19;;;;;;;;;;;;;;;14.17;64.74;99893.31;4355249;32;19967;-85
2022/11/06 01:34:47;;;;;;;;;;;;;;;14.32;64.42;99884.66;4355736;32;20014;-85
2022/11/06 01:37:14;;;;;;;;;;;;;;;14.43;64.12;99890.75;4378822;32;20009;-81
2022/11/06 01:39:41;;;;;;;;;;;;;;;14.42;63.90;99880.31;4355325;32;19994;-87
2022/11/06 01:42:11;;;;;;;;;;;;;;;14.60;63.18;99882.13;4358372;32;19978;-82
2022/11/06 01:44:41;;;;;;;;;;;;;;;14.56;63.43;99889.06;4358211;32;19995;-84
2022/11/06 01:47:22;;;;;;;;;;;;;;;14.40;64.16;99882.94;4357269;32;20474;-83
2022/11/06 01:49:50;;;;;;;;;;;;;;;14.41;64.01;99889.00;4384729;32;19983;-83
2022/11/06 01:52:17;;;;;;;;;;;;;;;14.40;64.24;99887.28;4383212;32;20487;-80
2022/11/06 01:54:44;;;;;;;;;;;;;;;14.51;63.84;99889.91;4367711;32;20146;-85
2022/11/06 01:57:11;;;;;;;;;;;;;;;14.58;63.33;99892.56;4373521;32;20395;-81
2022/11/06 01:59:40;;;;;;;;;;;;;;;14.53;63.65;99893.41;4383843;32;20028;-81
2022/11/06 02:02:07;;;;;;;;;;;;;;;14.48;63.87;99889.88;4385355;32;20375;-85
2022/11/06 02:04:37;;;;;;;;;;;;;;;14.40;64.15;99898.56;4381877;32;20022;-80
2022/11/06 02:07:04;;;;;;;;;;;;;;;14.36;64.19;99895.97;4362250;32;19979;-80
2022/11/06 02:09:31;;;;;;;;;;;;;;;14.43;64.02;99897.72;4387108;32;20045;-81
2022/11/06 02:12:02;;;;;;;;;;;;;;;14.34;64.55;99903.75;4382911;32;19982;-88
2022/11/06 02:14:50;;;;;;;;;;;;;;;14.34;64.28;99897.69;4364496;32;19993;-81
2022/11/06 02:17:16;;;;;;;;;;;;;;;14.37;64.23;99903.75;4377484;32;19994;-81
2022/11/06 02:19:49;;;;;;;;;;;;;;;14.24;64.78;99904.63;4354357;32;19995;-80
2022/11/06 02:22:27;;;;;;;;;;;;;;;14.26;64.67;99915.88;4354682;32;19994;-84
2022/11/06 02:25:13;;;;;;;;;;;;;;;14.52;63.79;99907.31;4383795;32;19983;-81
2022/11/06 02:27:43;;;;;;;;;;;;;;;14.29;64.40;99913.28;4354569;32;19983;-82
2022/11/06 02:30:11;;;;;;;;;;;;;;;14.24;64.71;99912.44;4387606;32;20049;-83
2022/11/06 02:32:45;;;;;;;;;;;;;;;14.32;64.39;99915.91;4382788;32;19988;-87
2022/11/06 02:35:15;;;;;;;;;;;;;;;14.28;64.51;99908.94;4381851;32;19996;-84
2022/11/06 02:37:42;;;;;;;;;;;;;;;14.27;64.62;99911.56;4359359;32;20006;-85
2022/11/06 02:40:09;;;;;;;;;;;;;;;14.39;64.08;99917.66;4391963;32;20001;-85
2022/11/06 02:42:37;;;;;;;;;;;;;;;14.03;65.41;99922.78;4388909;32;19971;-84
2022/11/06 02:45:04;;;;;;;;;;;;;;;14.18;65.11;99928.03;4384547;32;20022;-82
2022/11/06 02:47:32;;;;;;;;;;;;;;;14.36;64.30;99927.22;4393982;32;19978;-84
2022/11/06 02:50:04;;;;;;;;;;;;;;;13.93;65.66;99940.94;4370111;32;19979;-83
2022/11/06 02:52:33;;;;;;;;;;;;;;;14.09;65.47;99933.19;4393863;32;20652;-82
2022/11/06 02:55:02;;;;;;;;;;;;;;;14.24;64.71;99938.47;4391216;32;20049;-81
2022/11/06 02:57:29;;;;;;;;;;;;;;;14.32;64.41;99941.94;4363497;32;20434;-83
2022/11/06 03:00:06;;;;;;;;;;;;;;;14.26;64.89;99941.91;4392510;32;20011;-85
2022/11/06 03:02:41;;;;;;;;;;;;;;;14.32;64.54;99936.72;4363114;32;20014;-85
2022/11/06 03:05:10;;;;;;;;;;;;;;;14.34;64.36;99940.22;4393694;32;19983;-85
2022/11/06 03:07:39;;;;;;;;;;;;;;;14.50;63.50;99945.47;4370392;32;19995;-84
2022/11/06 03:10:06;;;;;;;;;;;;;;;14.34;64.21;99945.44;4388313;32;20443;-86
2022/11/06 03:12:37;;;;;;;;;;;;;;;14.29;64.67;99944.53;4364900;32;19986;-85
2022/11/06 03:15:19;;;;;;;;;;;;;;;14.31;64.09;99945.41;4355207;32;20002;-87
2022/11/06 03:18:01;;;;;;;;;;;;;;;14.41;63.77;99952.38;4361629;32;20037;-84
2022/11/06 03:20:48;;;;;;;;;;;;;;;14.36;64.24;99953.25;4369842;32;20001;-84
2022/11/06 03:23:17;;;;;;;;;;;;;;;14.24;64.72;99954.09;4365182;32;19993;-82
2022/11/06 03:25:47;;;;;;;;;;;;;;;14.15;65.08;99949.72;4362641;32;19987;-84
2022/11/06 03:28:14;;;;;;;;;;;;;;;14.31;64.58;99961.03;4353331;32;20037;-86
2022/11/06 03:30:43;;;;;;;;;;;;;;;14.19;65.13;99958.41;4353573;32;19983;-83
2022/11/06 03:33:10;;;;;;;;;;;;;;;14.31;64.50;99961.03;4378196;32;19983;-87
2022/11/06 03:35:39;;;;;;;;;;;;;;;14.21;65.00;99964.50;4362112;32;19988;-87
2022/11/06 03:38:08;;;;;;;;;;;;;;;14.30;64.68;99968.88;4379018;32;19983;-86
2022/11/06 03:40:36;;;;;;;;;;;;;;;14.34;64.35;99971.47;4355008;32;20018;-83
2022/11/06 03:43:04;;;;;;;;;;;;;;;14.33;64.44;99974.94;4377682;32;19975;-84
2022/11/06 03:45:30;;;;;;;;;;;;;;;14.26;64.76;99974.91;4362514;32;20364;-86
2022/11/06 03:48:00;;;;;;;;;;;;;;;14.39;64.39;99968.91;4380361;32;19979;-83
2022/11/06 03:50:29;;;;;;;;;;;;;;;14.36;64.46;99974.97;4362676;32;19990;-83
2022/11/06 03:52:57;;;;;;;;;;;;;;;14.27;64.39;99969.72;4381674;32;19989;-86
2022/11/06 03:55:26;;;;;;;;;;;;;;;14.36;64.08;99977.56;4380277;32;20752;-85
2022/11/06 03:57:54;;;;;;;;;;;;;;;14.26;64.67;99978.37;4378565;32;19990;-84
2022/11/06 04:00:21;;;;;;;;;;;;;;;14.27;64.50;99977.53;4364777;32;19987;-82
2022/11/06 04:03:03;;;;;;;;;;;;;;;14.18;64.81;99985.31;4371385;32;19986;-84
2022/11/06 04:05:44;;;;;;;;;;;;;;;14.25;64.77;99981.84;4388520;32;20003;-81
2022/11/06 04:13:56;;;;;;;;;;;;;;;14.43;63.84;99987.13;4383015;32;19979;-86
2022/11/06 04:16:30;;;;;;;;;;;;;;;14.41;63.98;99982.78;4376161;32;20003;-82
2022/11/06 04:18:58;;;;;;;;;;;;;;;14.20;64.77;99983.59;4381716;32;20370;-85
2022/11/06 04:21:34;;;;;;;;;;;;;;;14.32;64.07;99987.94;4373826;32;19983;-81
2022/11/06 04:27:11;;;;;;;;;;;;;;;14.40;63.86;99981.91;4359896;32;20128;-83
2022/11/06 04:29:38;;;;;;;;;;;;;;;14.39;63.62;99980.19;4357898;32;20331;-83
2022/11/06 04:32:23;;;;;;;;;;;;;;;14.31;64.07;99987.09;4363063;32;19979;-87
2022/11/06 04:35:19;;;;;;;;;;;;;;;14.28;64.08;99989.69;4356617;32;20260;-86
2022/11/06 04:37:55;;;;;;;;;;;;;;;14.36;63.98;99985.37;4358601;32;20006;-82
2022/11/06 04:40:25;;;;;;;;;;;;;;;14.24;64.27;99990.53;4388071;32;19979;-84
2022/11/06 04:42:56;;;;;;;;;;;;;;;14.30;64.02;99989.69;4355914;32;19979;-83
2022/11/06 04:45:24;;;;;;;;;;;;;;;14.40;63.35;99987.09;4384674;32;20001;-83
2022/11/06 04:47:52;;;;;;;;;;;;;;;14.38;63.45;99987.97;4382850;32;19979;-85
2022/11/06 04:50:19;;;;;;;;;;;;;;;14.43;63.06;99992.34;4366955;32;19979;-84
2022/11/06 04:52:46;;;;;;;;;;;;;;;14.12;64.25;99985.28;4379322;32;19983;-84
2022/11/06 04:55:13;;;;;;;;;;;;;;;14.23;64.07;99996.62;4379515;32;19985;-83
2022/11/06 04:57:40;;;;;;;;;;;;;;;14.35;63.61;99988.81;4355172;32;20023;-81
2022/11/06 05:00:09;;;;;;;;;;;;;;;14.35;63.46;99994.03;4360639;32;19991;-82
2022/11/06 05:02:36;;;;;;;;;;;;;;;14.11;64.47;99991.34;4388334;32;19979;-87
2022/11/06 05:05:03;;;;;;;;;;;;;;;14.23;64.01;99998.31;4371061;32;20324;-84
2022/11/06 05:07:30;;;;;;;;;;;;;;;14.25;63.85;99997.47;4371265;32;20018;-85
2022/11/06 05:09:57;;;;;;;;;;;;;;;14.17;64.01;99992.25;4366199;32;20033;-81
2022/11/06 05:12:23;;;;;;;;;;;;;;;14.25;64.04;99987.06;4387327;32;19983;-83
2022/11/06 05:14:50;;;;;;;;;;;;;;;14.26;63.88;99999.19;4362220;32;19966;-86
2022/11/06 05:17:17;;;;;;;;;;;;;;;14.31;63.29;99991.44;4369374;32;20019;-82
2022/11/06 05:19:44;;;;;;;;;;;;;;;14.21;63.64;99995.72;4375292;32;19990;-82
2022/11/06 05:24:56;;;;;;;;;;;;;;;14.21;63.64;99998.34;4357693;32;19997;-87
2022/11/06 05:27:23;;;;;;;;;;;;;;;14.30;63.19;100000.13;4362499;32;19979;-87
2022/11/06 05:29:49;;;;;;;;;;;;;;;14.04;64.33;100003.47;4384568;32;19987;-84
2022/11/06 05:32:16;;;;;;;;;;;;;;;14.15;63.79;100011.31;4358714;32;20058;-83
2022/11/06 05:34:45;;;;;;;;;;;;;;;13.92;64.86;100004.28;4356225;32;19979;-86
2022/11/06 05:37:12;;;;;;;;;;;;;;;14.13;64.05;100010.44;4355866;32;19992;-87
2022/11/06 05:39:39;;;;;;;;;;;;;;;14.24;64.05;100010.50;4356030;32;20404;-84
2022/11/06 05:42:08;;;;;;;;;;;;;;;14.18;64.08;100021.75;4364696;32;19987;-85
2022/11/06 05:44:34;;;;;;;;;;;;;;;14.14;64.31;100022.63;4378672;32;19979;-88
2022/11/06 05:47:01;;;;;;;;;;;;;;;14.17;63.70;100020.03;4355767;32;19998;-82
2022/11/06 05:49:28;;;;;;;;;;;;;;;14.21;63.68;100026.97;4354659;32;19995;-83
2022/11/06 05:51:55;;;;;;;;;;;;;;;14.26;63.53;100030.44;4363088;32;19983;-88
2022/11/06 05:54:21;;;;;;;;;;;;;;;14.26;63.81;100035.66;4370623;32;20351;-86
2022/11/06 05:56:51;;;;;;;;;;;;;;;14.18;63.76;100038.25;4371140;32;19976;-89
2022/11/06 05:59:17;;;;;;;;;;;;;;;14.14;63.80;100035.62;4366035;32;19993;-84
2022/11/06 06:01:44;;;;;;;;;;;;;;;14.24;63.48;100040.00;4385401;32;20006;-83
2022/11/06 06:04:11;;;;;;;;;;;;;;;14.11;63.63;100043.41;4378886;32;19989;-85
2022/11/06 06:06:38;;;;;;;;;;;;;;;14.11;63.98;100051.22;4191593;32;19991;-84
2022/11/06 06:09:04;;;;;;;;;;;;;;;14.24;63.56;100053.03;4366697;32;19995;-84
2022/11/06 06:11:31;;;;;;;;;;;;;;;14.12;63.98;100065.97;4363553;32;19984;-82
2022/11/06 06:13:59;;;;;;;;;;;;;;;14.15;63.75;100063.38;4363945;32;20003;-81
2022/11/06 06:16:25;;;;;;;;;;;;;;;14.23;63.46;100061.72;4361367;32;784780;-87
2022/11/06 06:18:52;;;;;;;;;;;;;;;14.11;64.07;100072.06;4355475;32;19987;-85
2022/11/06 06:21:19;;;;;;;;;;;;;;;14.14;64.12;100069.47;4355542;32;20005;-81
2022/11/06 06:23:46;;;;;;;;;;;;;;;14.19;63.95;100070.34;4355020;32;20838;-85
2022/11/06 06:26:12;;;;;;;;;;;;;;;14.10;64.33;100070.28;4355397;32;19987;-87
2022/11/06 06:28:39;;;;;;;;;;;;;;;14.09;64.18;100071.16;4362586;32;19982;-83
2022/11/06 06:31:06;;;;;;;;;;;;;;;14.20;64.05;100074.72;4356820;32;20006;-81
2022/11/06 06:33:33;;;;;;;;;;;;;;;14.09;64.27;100073.78;4355767;32;20447;-82
2022/11/06 06:36:04;;;;;;;;;;;;;;;14.10;64.32;100076.41;4355437;32;20013;-81
2022/11/06 06:38:30;;;;;;;;;;;;;;;14.14;64.08;100078.16;4386392;32;20118;-82
2022/11/06 06:41:01;;;;;;;;;;;;;;;14.21;63.61;100089.47;4379257;32;20333;-85
2022/11/06 06:43:28;;;;;;;;;;;;;;;14.04;64.75;100080.66;4355376;32;19986;-85
2022/11/06 06:45:58;;;;;;;;;;;;;;;14.13;64.73;100096.34;4378901;32;20158;-88
2022/11/06 06:48:25;;;;;;;;;;;;;;;14.28;63.83;100096.44;4359247;32;20005;-83
2022/11/06 06:50:55;;;;;;;;;;;;;;;14.03;64.77;100104.97;4359780;32;19983;-82
2022/11/06 06:53:21;;;;;;;;;;;;;;;14.18;64.41;100105.06;4359707;32;19994;-87
2022/11/06 06:55:48;;;;;;;;;;;;;;;14.23;64.05;100108.56;4382718;32;19994;-81
2022/11/06 06:58:15;;;;;;;;;;;;;;;14.16;64.04;100112.84;4355412;32;20046;-82
2022/11/06 07:00:43;;;;;;;;;;;;;;;14.21;64.20;100109.44;4362971;32;20018;-85
2022/11/06 07:03:11;;;;;;;;;;;;;;;14.24;63.94;100105.09;4356185;32;20022;-84
2022/11/06 07:05:37;;;;;;;;;;;;;;;14.08;64.31;100108.47;4386124;32;20013;-85
2022/11/06 07:08:04;;;;;;;;;;;;;;;14.32;63.70;100111.19;4355181;32;19999;-80
2022/11/06 07:10:31;;;;;;;;;;;;;;;14.43;63.35;100117.34;4355375;32;20001;-86
2022/11/06 07:13:01;;;;;;;;;;;;;;;14.37;63.18;100117.31;4360816;32;20005;-83
2022/11/06 07:15:28;;;;;;;;;;;;;;;14.31;63.51;100117.28;4363320;32;19990;-83
2022/11/06 07:18:00;;;;;;;;;;;;;;;14.17;64.06;100119.81;4375617;32;19997;-82
2022/11/06 07:20:27;;;;;;;;;;;;;;;14.25;63.44;100124.19;4346594;32;20359;-84
2022/11/06 07:22:54;;;;;;;;;;;;;;;14.27;63.62;100125.94;4355170;32;20723;-83
2022/11/06 07:25:21;;;;;;;;;;;;;;;14.03;64.43;100125.78;4363117;32;19991;-81
2022/11/06 07:27:48;;;;;;;;;;;;;;;14.21;64.02;100120.69;4354805;32;19983;-86
2022/11/06 07:30:15;;;;;;;;;;;;;;;14.32;63.28;100129.44;4355192;32;19988;-84
2022/11/06 07:32:42;;;;;;;;;;;;;;;14.32;63.71;100123.34;4355056;32;19994;-83
2022/11/06 07:35:09;;;;;;;;;;;;;;;14.32;63.38;100126.81;4354835;32;20497;-85
2022/11/06 07:37:36;;;;;;;;;;;;;;;14.24;64.08;100125.06;4354688;32;20009;-82
2022/11/06 07:40:04;;;;;;;;;;;;;;;14.37;63.13;100122.53;4363004;32;19975;-83
2022/11/06 07:42:30;;;;;;;;;;;;;;;14.27;63.35;100136.38;4356511;32;19995;-81
2022/11/06 07:44:59;;;;;;;;;;;;;;;14.12;64.34;100136.25;4367034;32;20005;-86
2022/11/06 07:47:28;;;;;;;;;;;;;;;14.21;64.10;100141.53;4369710;32;19995;-82
2022/11/06 07:49:55;;;;;;;;;;;;;;;14.01;64.78;100144.00;4392828;32;20006;-85
2022/11/06 07:52:22;;;;;;;;;;;;;;;14.24;63.62;100133.75;4369737;32;19983;-81
2022/11/06 07:54:49;;;;;;;;;;;;;;;14.23;63.87;100134.63;4369481;32;19987;-77
2022/11/06 07:57:17;;;;;;;;;;;;;;;14.17;64.09;100139.78;4369721;32;19991;-80
2022/11/06 07:59:44;;;;;;;;;;;;;;;14.22;63.57;100138.06;4367220;32;20005;-80
2022/11/06 08:02:11;;;;;;;;;;;;;;;14.17;63.89;100142.37;4361069;32;20037;-82
2022/11/06 08:04:39;;;;;;;;;;;;;;;14.36;62.98;100133.81;4354409;32;20317;-82
2022/11/06 08:07:05;;;;;;;;;;;;;;;14.23;63.80;100145.03;4354380;32;19987;-78
2022/11/06 08:09:32;;;;;;;;;;;;;;;14.19;64.02;100138.03;4356351;32;20934;-79
2022/11/06 08:11:59;;;;;;;;;;;;;;;14.32;63.37;100134.63;4363658;32;20315;-77
2022/11/06 08:14:25;;;;;;;;;;;;;;;14.17;63.92;100143.25;4362342;32;20010;-82
2022/11/06 08:16:52;;;;;;;;;;;;;;;13.99;64.75;100134.44;4354206;32;19991;-79
2022/11/06 08:19:19;;;;;;;;;;;;;;;14.22;63.83;100143.25;4354278;32;19983;-87
2022/11/06 08:21:46;;;;;;;;;;;;;;;14.35;63.45;100139.88;4353991;32;20396;-86
2022/11/06 08:24:13;;;;;;;;;;;;;;;14.13;64.55;100141.47;4354227;32;20423;-80
2022/11/06 08:26:47;;;;;;;;;;;;;;;14.27;63.97;100146.78;4357044;32;20002;-79
2022/11/06 08:29:14;;;;;;;;;;;;;;;14.19;64.29;100148.44;4359608;32;20002;-86
2022/11/06 08:31:41;;;;;;;;;;;;;;;14.34;63.39;100145.94;4358060;32;20385;-83
2022/11/06 08:34:08;;;;;;;;;;;;;;;14.26;63.85;100146.75;4376380;32;19991;-82
2022/11/06 08:36:35;;;;;;;;;;;;;;;14.16;64.28;100148.44;4379631;32;19998;-84
2022/11/06 08:39:02;;;;;;;;;;;;;;;14.33;63.56;100146.81;4361512;32;22847;-83
2022/11/06 08:41:29;;;;;;;;;;;;;;;14.31;63.74;100143.31;4366240;32;19975;-83
2022/11/06 08:43:56;;;;;;;;;;;;;;;14.18;64.31;100146.72;4363800;32;19986;-82
2022/11/06 08:46:22;;;;;;;;;;;;;;;14.28;64.23;100147.66;4370653;32;20030;-85
2022/11/06 08:48:49;;;;;;;;;;;;;;;14.32;64.13;100145.06;4358734;32;20002;-88
2022/11/06 08:51:16;;;;;;;;;;;;;;;14.29;64.23;100141.56;4356034;32;19971;-81
2022/11/06 08:53:43;;;;;;;;;;;;;;;14.35;64.35;100139.88;4355881;32;19980;-81
2022/11/06 08:56:10;;;;;;;;;;;;;;;14.39;64.29;100152.06;4364761;32;20395;-83
2022/11/06 08:58:37;;;;;;;;;;;;;;;14.28;64.96;100143.31;4356505;32;20353;-85
2022/11/06 09:01:04;;;;;;;;;;;;;;;14.41;64.56;100144.25;4364132;32;20816;-80
2022/11/06 09:03:31;;;;;;;;;;;;;;;14.30;64.73;100145.94;4355984;32;19984;-85
2022/11/06 09:05:58;;;;;;;;;;;;;;;14.45;64.22;100150.34;4344991;32;20773;-85
2022/11/06 09:08:24;;;;;;;;;;;;;;;14.56;64.05;100149.56;4382003;32;20443;-83
2022/11/06 09:10:51;;;;;;;;;;;;;;;14.50;64.17;100146.03;4368943;32;19971;-84
2022/11/06 09:13:25;;;;;;;;;;;;;;;14.43;64.45;100146.00;4362992;32;20010;-81
2022/11/06 09:15:52;;;;;;;;;;;;;;;14.61;63.93;100141.75;4357172;32;19983;-79
2022/11/06 09:18:18;;;;;;;;;;;;;;;14.54;64.65;100142.59;4355840;32;20005;-83
2022/11/06 09:20:45;;;;;;;;;;;;;;;14.59;64.58;100133.09;4364548;32;19998;-82
2022/11/06 09:23:13;;;;;;;;;;;;;;;14.59;64.85;100133.09;4356264;32;19987;-90
2022/11/06 09:25:41;;;;;;;;;;;;;;;14.97;63.95;100134.97;4360523;32;19995;-84
2022/11/06 09:28:08;;;;;;;;;;;;;;;14.77;64.73;100133.16;4364598;32;20073;-83
2022/11/06 09:30:36;;;;;;;;;;;;;;;14.80;64.71;100127.94;4371159;32;19979;-89
2022/11/06 09:33:03;;;;;;;;;;;;;;;14.81;64.80;100134.91;4394226;32;20414;-85
2022/11/06 09:35:35;;;;;;;;;;;;;;;14.88;64.37;100136.66;4359038;32;20009;-86
2022/11/06 09:38:02;;;;;;;;;;;;;;;15.01;64.15;100131.50;4363022;32;19998;-86
2022/11/06 09:40:43;;;;;;;;;;;;;;;14.70;64.99;100134.00;4370245;32;20027;-83
2022/11/06 09:43:20;;;;;;;;;;;;;;;14.91;64.32;100129.72;4392730;32;20026;-90
2022/11/06 09:46:19;;;;;;;;;;;;;;;14.93;64.76;100127.97;4364125;32;20027;-85
2022/11/06 09:48:49;;;;;;;;;;;;;;;14.96;64.68;100128.00;4387790;32;19998;-81
2022/11/06 09:51:34;;;;;;;;;;;;;;;15.23;63.60;100122.84;4362217;32;20022;-83
2022/11/06 09:54:15;;;;;;;;;;;;;;;15.15;64.17;100124.56;4355430;32;19987;-82
2022/11/06 09:56:42;;;;;;;;;;;;;;;15.19;63.53;100126.34;4379788;32;20002;-83
2022/11/06 09:59:16;;;;;;;;;;;;;;;15.07;64.21;100115.88;4363718;32;19994;-82
2022/11/06 10:01:44;;;;;;;;;;;;;;;15.03;64.77;100127.16;4357713;32;19979;-86
2022/11/06 10:04:35;;;;;;;;;;;;;;;15.26;64.18;100128.06;4385636;32;19987;-85
2022/11/06 10:07:10;;;;;;;;;;;;;;;15.44;63.04;100121.13;4375789;32;20021;-87
2022/11/06 10:09:37;;;;;;;;;;;;;;;15.12;63.80;100116.72;4381150;32;20392;-85
2022/11/06 10:12:10;;;;;;;;;;;;;;;15.26;63.30;100119.38;4363760;32;20021;-81
2022/11/06 10:14:40;;;;;;;;;;;;;;;15.25;63.48;100115.00;4382861;32;20785;-85
2022/11/06 10:17:26;;;;;;;;;;;;;;;15.33;63.89;100118.50;4367602;32;19978;-82
2022/11/06 10:19:56;;;;;;;;;;;;;;;15.43;63.32;100114.19;4055212;32;10000810;-84
2022/11/06 10:22:29;;;;;;;;;;;;;;;15.38;63.22;100110.69;4356819;32;19998;-81
2022/11/06 10:25:03;;;;;;;;;;;;;;;15.32;63.47;100111.56;4363744;32;20350;-85
2022/11/06 10:27:40;;;;;;;;;;;;;;;15.64;62.50;100114.19;4368588;32;20039;-83
2022/11/06 10:30:07;;;;;;;;;;;;;;;15.33;63.62;100114.16;4387289;32;20395;-85
2022/11/06 10:32:52;;;;;;;;;;;;;;;15.41;63.49;100115.91;4355965;32;20006;-85
2022/11/06 10:35:22;;;;;;;;;;;;;;;15.49;64.30;100111.56;4355458;32;19993;-84
2022/11/06 10:38:11;;;;;;;;;;;;;;;15.60;64.24;100112.44;4361994;32;20316;-81
2022/11/06 10:40:39;;;;;;;;;;;;;;;15.72;62.57;100102.03;4356194;32;19986;-82
2022/11/06 10:43:06;;;;;;;;;;;;;;;15.53;63.96;100106.34;4379560;32;20010;-81
2022/11/06 10:45:32;;;;;;;;;;;;;;;15.72;63.48;100102.03;4356348;32;20282;-82
2022/11/06 10:48:04;;;;;;;;;;;;;;;15.59;64.51;100100.25;4379075;32;19999;-82
2022/11/06 10:50:39;;;;;;;;;;;;;;;15.71;63.84;100097.69;4378491;32;20021;-83
2022/11/06 10:53:07;;;;;;;;;;;;;;;15.72;63.88;100091.59;4384789;32;19979;-83
2022/11/06 10:55:38;;;;;;;;;;;;;;;15.83;63.58;100093.34;4378383;32;19975;-84
2022/11/06 10:58:09;;;;;;;;;;;;;;;15.78;63.44;100088.97;4378447;32;20355;-84
2022/11/06 11:00:39;;;;;;;;;;;;;;;15.81;63.86;100086.34;4357292;32;20036;-84
2022/11/06 11:03:12;;;;;;;;;;;;;;;15.77;63.97;100082.03;4385188;32;20058;-85
2022/11/06 11:05:40;;;;;;;;;;;;;;;15.64;65.13;100082.88;4378692;32;19983;-82
2022/11/06 11:08:43;;;;;;;;;;;;;;;15.69;64.61;100078.53;4355888;32;19972;-81
2022/11/06 11:11:12;;;;;;;;;;;;;;;15.98;63.86;100077.63;4375856;32;20017;-83
2022/11/06 11:13:40;;;;;;;;;;;;;;;16.13;63.27;100077.59;4366073;32;19999;-83
2022/11/06 11:16:15;;;;;;;;;;;;;;;15.96;63.93;100074.16;4385314;32;19998;-84
2022/11/06 11:18:43;;;;;;;;;;;;;;;15.95;64.14;100072.41;4361705;32;19982;-84
2022/11/06 11:21:16;;;;;;;;;;;;;;;16.01;63.83;100072.41;4380473;32;20321;-82
2022/11/06 11:23:45;;;;;;;;;;;;;;;15.95;63.49;100075.03;4355041;32;19983;-83
2022/11/06 11:26:11;;;;;;;;;;;;;;;16.14;62.80;100074.09;4355159;32;19991;-80
2022/11/06 11:28:38;;;;;;;;;;;;;;;15.95;63.40;100075.03;4355194;32;20014;-85
2022/11/06 11:31:09;;;;;;;;;;;;;;;15.87;64.11;100075.03;4378168;32;19997;-83
2022/11/06 11:33:41;;;;;;;;;;;;;;;15.99;63.46;100074.16;4378729;32;19991;-81
2022/11/06 11:36:08;;;;;;;;;;;;;;;15.97;63.50;100081.13;4385693;32;19984;-84
2022/11/06 11:38:36;;;;;;;;;;;;;;;16.10;63.22;100088.03;4382383;32;19983;-84
2022/11/06 11:41:18;;;;;;;;;;;;;;;16.15;62.49;100078.47;4380875;32;19983;-82
2022/11/06 11:43:57;;;;;;;;;;;;;;;15.98;63.63;100082.84;4362202;32;20012;-83
2022/11/06 11:46:25;;;;;;;;;;;;;;;16.10;63.15;100080.22;4380033;32;19998;-84
2022/11/06 11:48:56;;;;;;;;;;;;;;;16.03;63.71;100075.88;4377522;32;19988;-82
2022/11/06 11:51:27;;;;;;;;;;;;;;;16.07;63.65;100067.16;4360762;32;20053;-81
2022/11/06 11:54:12;;;;;;;;;;;;;;;16.14;63.30;100068.88;4355524;32;19998;-82
2022/11/06 11:56:43;;;;;;;;;;;;;;;16.26;62.27;100068.84;4354848;32;20019;-81
2022/11/06 11:59:37;;;;;;;;;;;;;;;16.10;63.06;100064.53;4374110;32;19987;-83
2022/11/06 12:02:16;;;;;;;;;;;;;;;16.09;63.66;100065.44;4360443;32;19991;-84
2022/11/06 12:04:52;;;;;;;;;;;;;;;16.19;63.15;100072.34;4356078;32;19978;-82
2022/11/06 12:07:28;;;;;;;;;;;;;;;16.15;63.10;100081.09;4363344;32;20392;-81
2022/11/06 12:09:55;;;;;;;;;;;;;;;16.19;62.85;100071.50;4394482;32;20090;-81
2022/11/06 12:12:23;;;;;;;;;;;;;;;16.27;62.30;100075.81;4364912;32;20054;-83
2022/11/06 12:15:03;;;;;;;;;;;;;;;15.86;63.96;100072.41;4364613;32;19998;-83
2022/11/06 12:17:30;;;;;;;;;;;;;;;15.91;64.20;100068.06;4356087;32;19994;-85
2022/11/06 12:19:57;;;;;;;;;;;;;;;16.02;63.73;100074.16;4385784;32;20010;-81
2022/11/06 12:22:26;;;;;;;;;;;;;;;16.08;63.16;100070.63;4393495;32;19990;-84
2022/11/06 12:24:55;;;;;;;;;;;;;;;16.06;63.17;100069.78;4364621;32;20006;-81
2022/11/06 12:27:23;;;;;;;;;;;;;;;16.20;62.73;100073.22;4380111;32;20002;-85
2022/11/06 12:29:50;;;;;;;;;;;;;;;15.98;63.53;100073.25;4380946;32;20050;-84
2022/11/06 12:32:20;;;;;;;;;;;;;;;16.25;61.97;100067.13;4386698;32;19979;-84
2022/11/06 12:34:49;;;;;;;;;;;;;;;16.25;61.89;100067.13;4383310;32;20391;-81
2022/11/06 12:37:22;;;;;;;;;;;;;;;16.35;61.01;100064.47;4360632;32;19983;-81
2022/11/06 12:40:04;;;;;;;;;;;;;;;16.22;62.28;100066.25;4377233;32;21261;-85
2022/11/06 12:42:31;;;;;;;;;;;;;;;16.07;63.48;100069.78;4384304;32;19983;-82
2022/11/06 12:44:58;;;;;;;;;;;;;;;16.13;63.40;100072.38;4380708;32;20762;-82
2022/11/06 12:47:32;;;;;;;;;;;;;;;16.13;63.45;100077.59;4355748;32;19991;-84
2022/11/06 12:50:12;;;;;;;;;;;;;;;16.18;63.31;100081.06;4356035;32;20059;-84
2022/11/06 12:52:57;;;;;;;;;;;;;;;16.13;63.33;100076.72;4376618;32;20351;-84
2022/11/06 12:55:36;;;;;;;;;;;;;;;16.15;63.21;100075.84;4357259;32;19998;-82
2022/11/06 12:58:09;;;;;;;;;;;;;;;16.28;62.25;100076.69;4387994;32;19986;-82
2022/11/06 13:00:40;;;;;;;;;;;;;;;16.34;62.25;100071.44;4358322;32;19994;-83
2022/11/06 13:03:07;;;;;;;;;;;;;;;16.42;62.15;100074.00;4362443;32;20335;-83
2022/11/06 13:05:36;;;;;;;;;;;;;;;16.30;62.86;100069.69;4355887;32;20035;-84
2022/11/06 13:08:19;;;;;;;;;;;;;;;16.28;62.73;100071.47;4381416;32;19989;-85